Lander, WY (82520)

8:06 PM MDT on March 27, 2017 (GMT -0600)
Lander Valley | | Change Station
Active Advisory: Special Statement

Elev 5358 ft 42.84 °N, 108.74 °W | Updated 2 minutes ago

Overcast
Overcast
51.6 °F
Feels Like 51.6 °F
N
0.3
Wind Variable Wind from West

Today
High -- | Low -- °F
--% Chance of Precip.
Yesterday
High -- | Low -- °F
Precip. -- in
Pressure 29.78 in
Visibility 10.0 miles
Clouds Few 7500 ft
Overcast 9000 ft
Dew Point 30 °F
Humidity 44%
Rainfall 0.00 in
Snow Depth Not available.
7:05 AM 7:35 PM
Waning Crescent, 0% visible
METAR KLND 280153Z AUTO 31006KT 10SM FEW075 OVC090 09/M02 A2981 RMK AO2 SLP084 T00941022
Pressure 29.78 in
Visibility 10.0 miles
Clouds Few 7500 ft
Overcast 9000 ft
Dew Point 30 °F
Humidity 44%
Rainfall 0.00 in
Snow Depth Not available.
7:05 AM 7:35 PM
Waning Crescent, 0% visible
METAR KLND 280153Z AUTO 31006KT 10SM FEW075 OVC090 09/M02 A2981 RMK AO2 SLP084 T00941022

Get Your Daily Forecast Email!

Thanks for signing up!

Be on the lookout for a verification email in your inbox.

You'll start receiving severe weather alerts in your inbox..

×

10-Day Weather Forecast

Almanac

Astronomy

Mar. 27, 2017 Rise Set
Actual Time
Civil Twilight
Nautical Twilight
Astronomical Twilight
Moon
Length of Visible Light
Length of Day
Tomorrow will be .
, % of the Moon is Illuminated

Today's Extremes

State Highs State Lows

Community

WunderPhotos

Upload Photos

1,962,540 photos uploaded!

WunderBlog® & News

Nearby

Air Quality

  Air Quality AQ Index Pollutant
Not available.

Snow Depth

Station Depth Elevation

Earthquake Activity

City Distance Mag. Time & Date
Minimum magnitude displayed is 2.5.

Earthquake Activity

City Distance Mag. Time & Date
Minimum magnitude displayed is 2.5.

Coastal Water Temperatures

Place Temperature

Stations

Nearby Weather Stations

Station Location Temp. Windchill Dew Point Humidity Wind Precip. Elev Updated Type
                   

Watches & Warnings

Special Statement
Issued: 1:45 PM MDT Mar. 27, 2017 – National Weather Service

The next storm system will spread rain showers across the area
by this evening. Cooler air will move behind a cold front later
tonight and may change the rain over to a rain snow mix or all wet
snow late tonight and Tuesday morning. A trace to 2 inches of
snow will be possible over the Wind River basin, 1 to 3 inches in
the Lander foothills and 3 to 6 inches in the Wind River
mountains. The precipitation should end Tuesday night.



145 PM MDT Mon Mar 27 2017

The next storm system will spread rain showers across the area
by this evening. Cooler air will move behind a cold front later
tonight and may change the rain over to a rain snow mix or all wet
snow late tonight and Tuesday morning. A trace to 2 inches of
snow will be possible over the Wind River basin, 1 to 3 inches in
the Lander foothills and 3 to 6 inches in the Wind River
mountains. The precipitation should end Tuesday night.